EIN41 KBOS-EIDW
Flight info
| Callsign | EIN41 |
|---|---|
| Flight time | N/A |
| Altitude | 35000 |
| Route | LBSTA8 LBSTA DCT TAFFY N787A JANJO/M083F360 DCT 56N050W 57N040W 57N030W 56N020W DCT RESNO DCT NETKI/N0480F370 DCT REVNU DCT OLAPO OLAPO4L |
| Aircraft | L101/H-SDFGHIRWXY/S |
Departure
| Time | 2026-05-01 12:13 |
|---|---|
| Airport | Boston Logan International Airport (KBOS) |
Arrival
| Time | N/A |
|---|---|
| Airport | Dublin Airport (EIDW) |
| Time | Latitude | Longitude | Altitude | Speed | Heading |
|---|---|---|---|---|---|
| 2026-05-01 11:40 | 42.36800 | -71.01408 | 28 ft | 0 kts | 260° |
| 2026-05-01 12:01 | 42.36802 | -71.01392 | 30 ft | 3 kts | 257° |
| 2026-05-01 12:02 | 42.36810 | -71.01357 | 29 ft | 3 kts | 244° |
| 2026-05-01 12:02 | 42.36824 | -71.01330 | 30 ft | 4 kts | 200° |
| 2026-05-01 12:02 | 42.36835 | -71.01329 | 30 ft | 0 kts | 135° |
| 2026-05-01 12:05 | 42.36832 | -71.01326 | 29 ft | 2 kts | 135° |
| 2026-05-01 12:06 | 42.36816 | -71.01304 | 30 ft | 5 kts | 137° |
| 2026-05-01 12:06 | 42.36779 | -71.01264 | 28 ft | 9 kts | 147° |
| 2026-05-01 12:06 | 42.36713 | -71.01249 | 30 ft | 11 kts | 187° |
| 2026-05-01 12:06 | 42.36629 | -71.01275 | 30 ft | 14 kts | 197° |
| 2026-05-01 12:07 | 42.36530 | -71.01328 | 30 ft | 17 kts | 206° |
| 2026-05-01 12:07 | 42.36414 | -71.01393 | 30 ft | 18 kts | 186° |
| 2026-05-01 12:07 | 42.36325 | -71.01292 | 29 ft | 19 kts | 121° |
| 2026-05-01 12:07 | 42.36253 | -71.01126 | 30 ft | 22 kts | 115° |
| 2026-05-01 12:08 | 42.36188 | -71.00929 | 28 ft | 24 kts | 114° |
| 2026-05-01 12:08 | 42.36117 | -71.00708 | 29 ft | 26 kts | 109° |
| 2026-05-01 12:08 | 42.36056 | -71.00461 | 29 ft | 29 kts | 108° |
| 2026-05-01 12:08 | 42.35998 | -71.00236 | 29 ft | 23 kts | 109° |
| 2026-05-01 12:09 | 42.35921 | -71.00038 | 30 ft | 25 kts | 132° |
| 2026-05-01 12:09 | 42.35794 | -70.99866 | 30 ft | 27 kts | 135° |
| 2026-05-01 12:09 | 42.35655 | -70.99679 | 30 ft | 29 kts | 135° |
| 2026-05-01 12:09 | 42.35510 | -70.99482 | 30 ft | 26 kts | 127° |
| 2026-05-01 12:10 | 42.35495 | -70.99381 | 30 ft | 0 kts | 80° |
| 2026-05-01 12:12 | 42.35495 | -70.99379 | 30 ft | 1 kts | 80° |
| 2026-05-01 12:12 | 42.35501 | -70.99343 | 29 ft | 7 kts | 73° |
| 2026-05-01 12:12 | 42.35556 | -70.99304 | 30 ft | 13 kts | 343° |
| 2026-05-01 12:12 | 42.35613 | -70.99362 | 30 ft | 17 kts | 315° |
| 2026-05-01 12:13 | 42.35842 | -70.99672 | 30 ft | 86 kts | 315° |
| 2026-05-01 12:13 | 42.36447 | -71.00484 | 36 ft | 159 kts | 315° |
| 2026-05-01 12:13 | 42.37331 | -71.01666 | 646 ft | 188 kts | 314° |
| 2026-05-01 12:13 | 42.38197 | -71.02947 | 1512 ft | 184 kts | 309° |
| 2026-05-01 12:14 | 42.39001 | -71.04373 | 2143 ft | 201 kts | 306° |
| 2026-05-01 12:14 | 42.39841 | -71.06053 | 2484 ft | 233 kts | 304° |
| 2026-05-01 12:14 | 42.40918 | -71.07876 | 2889 ft | 262 kts | 315° |
| 2026-05-01 12:14 | 42.42324 | -71.09504 | 3358 ft | 263 kts | 323° |
| 2026-05-01 12:15 | 42.43851 | -71.10775 | 3419 ft | 252 kts | 332° |
| 2026-05-01 12:15 | 42.45440 | -71.11740 | 3477 ft | 250 kts | 336° |
| 2026-05-01 12:15 | 42.47059 | -71.12614 | 3503 ft | 251 kts | 341° |
| 2026-05-01 12:15 | 42.48783 | -71.12868 | 3504 ft | 253 kts | 7° |
| 2026-05-01 12:16 | 42.50440 | -71.12022 | 3449 ft | 257 kts | 27° |
| 2026-05-01 12:16 | 42.51936 | -71.10681 | 3406 ft | 260 kts | 34° |
| 2026-05-01 12:16 | 42.53351 | -71.09140 | 3468 ft | 261 kts | 38° |
| 2026-05-01 12:16 | 42.54704 | -71.07431 | 3658 ft | 280 kts | 42° |
| 2026-05-01 12:17 | 42.56066 | -71.05446 | 4367 ft | 292 kts | 47° |
| 2026-05-01 12:17 | 42.57354 | -71.03315 | 5527 ft | 288 kts | 50° |
| 2026-05-01 12:17 | 42.58524 | -71.01215 | 6981 ft | 270 kts | 51° |
| 2026-05-01 12:17 | 42.59612 | -70.99226 | 8175 ft | 263 kts | 50° |
| 2026-05-01 12:18 | 42.60737 | -70.97202 | 8885 ft | 276 kts | 51° |
| 2026-05-01 12:18 | 42.61949 | -70.95028 | 9175 ft | 302 kts | 51° |
| 2026-05-01 12:18 | 42.63238 | -70.92670 | 9596 ft | 318 kts | 52° |
| 2026-05-01 12:18 | 42.64549 | -70.90232 | 10509 ft | 318 kts | 52° |
| 2026-05-01 12:19 | 42.65887 | -70.87731 | 11154 ft | 330 kts | 53° |
| 2026-05-01 12:19 | 42.67273 | -70.85145 | 11341 ft | 355 kts | 53° |
| 2026-05-01 12:19 | 42.68782 | -70.82333 | 11456 ft | 380 kts | 53° |
| 2026-05-01 12:19 | 42.70383 | -70.79345 | 11580 ft | 402 kts | 53° |
| 2026-05-01 12:20 | 42.72049 | -70.76229 | 12086 ft | 409 kts | 53° |
| 2026-05-01 12:20 | 42.73711 | -70.73120 | 13067 ft | 404 kts | 53° |
| 2026-05-01 12:20 | 42.75371 | -70.70013 | 13789 ft | 408 kts | 53° |
| 2026-05-01 12:20 | 42.77061 | -70.66827 | 14173 ft | 422 kts | 53° |
| 2026-05-01 12:21 | 42.78938 | -70.63763 | 14931 ft | 420 kts | 41° |
| 2026-05-01 12:21 | 42.81313 | -70.61469 | 15698 ft | 420 kts | 26° |
| 2026-05-01 12:21 | 42.83970 | -70.59725 | 16154 ft | 429 kts | 24° |
| 2026-05-01 12:21 | 42.86642 | -70.57873 | 16856 ft | 432 kts | 27° |
| 2026-05-01 12:22 | 42.89260 | -70.55805 | 17470 ft | 437 kts | 30° |
| 2026-05-01 12:22 | 42.91905 | -70.53672 | 18011 ft | 444 kts | 28° |
| 2026-05-01 12:22 | 42.94627 | -70.51645 | 18683 ft | 448 kts | 26° |
| 2026-05-01 12:22 | 42.97426 | -70.49733 | 19301 ft | 453 kts | 25° |
| 2026-05-01 12:23 | 43.00282 | -70.47858 | 19901 ft | 459 kts | 25° |
| 2026-05-01 12:23 | 43.03167 | -70.45944 | 20542 ft | 463 kts | 26° |
| 2026-05-01 12:23 | 43.06071 | -70.43985 | 21102 ft | 468 kts | 26° |
| 2026-05-01 12:23 | 43.09007 | -70.41996 | 21675 ft | 473 kts | 26° |
| 2026-05-01 12:24 | 43.11944 | -70.40017 | 22224 ft | 478 kts | 26° |
| 2026-05-01 12:24 | 43.14942 | -70.38011 | 22738 ft | 483 kts | 26° |
| 2026-05-01 12:24 | 43.17976 | -70.35981 | 23245 ft | 487 kts | 26° |
| 2026-05-01 12:24 | 43.21032 | -70.33933 | 23756 ft | 492 kts | 27° |
| 2026-05-01 12:25 | 43.24125 | -70.31851 | 24252 ft | 496 kts | 27° |
| 2026-05-01 12:25 | 43.30373 | -70.27640 | 25194 ft | 505 kts | 27° |
| 2026-05-01 12:25 | 43.33565 | -70.25496 | 25331 ft | 517 kts | 27° |
| 2026-05-01 12:26 | 43.36833 | -70.23290 | 25447 ft | 529 kts | 27° |
| 2026-05-01 12:26 | 43.43534 | -70.18764 | 26239 ft | 537 kts | 28° |
| 2026-05-01 12:26 | 43.46885 | -70.16502 | 26917 ft | 534 kts | 28° |
| 2026-05-01 12:27 | 43.50222 | -70.14247 | 27543 ft | 533 kts | 28° |
| 2026-05-01 12:27 | 43.56873 | -70.09736 | 28742 ft | 531 kts | 28° |
| 2026-05-01 12:28 | 43.63479 | -70.05239 | 29920 ft | 529 kts | 28° |
| 2026-05-01 12:28 | 43.66787 | -70.02985 | 30492 ft | 528 kts | 28° |
| 2026-05-01 12:28 | 43.73357 | -69.98502 | 31662 ft | 525 kts | 28° |
| 2026-05-01 12:29 | 43.76591 | -69.96294 | 32247 ft | 524 kts | 28° |
| 2026-05-01 12:29 | 43.79863 | -69.94058 | 32787 ft | 523 kts | 28° |
| 2026-05-01 12:29 | 43.86370 | -69.89588 | 33846 ft | 520 kts | 28° |
| 2026-05-01 12:30 | 43.92858 | -69.85121 | 34605 ft | 524 kts | 27° |
| 2026-05-01 12:30 | 43.96132 | -69.82863 | 34757 ft | 524 kts | 27° |
| 2026-05-01 12:31 | 44.02627 | -69.78382 | 34839 ft | 524 kts | 27° |
| 2026-05-01 12:31 | 44.09195 | -69.73839 | 34846 ft | 523 kts | 28° |
| 2026-05-01 12:32 | 44.15705 | -69.69320 | 34845 ft | 523 kts | 28° |
| 2026-05-01 12:32 | 44.25472 | -69.62524 | 34835 ft | 523 kts | 28° |
| 2026-05-01 12:33 | 44.31945 | -69.58012 | 34832 ft | 523 kts | 28° |
| 2026-05-01 12:33 | 44.38463 | -69.53444 | 34830 ft | 523 kts | 28° |
| 2026-05-01 12:34 | 44.44976 | -69.48871 | 34822 ft | 523 kts | 28° |
| 2026-05-01 12:34 | 44.51471 | -69.44305 | 34816 ft | 523 kts | 28° |
| 2026-05-01 12:35 | 44.57982 | -69.39707 | 34815 ft | 523 kts | 28° |
| 2026-05-01 12:35 | 44.64499 | -69.35100 | 34818 ft | 524 kts | 28° |
| 2026-05-01 12:36 | 44.71010 | -69.30489 | 34809 ft | 524 kts | 29° |
| 2026-05-01 12:36 | 44.77481 | -69.25893 | 34802 ft | 524 kts | 29° |
| 2026-05-01 12:37 | 44.84033 | -69.21227 | 34806 ft | 524 kts | 29° |
| 2026-05-01 12:37 | 44.90487 | -69.16619 | 34806 ft | 524 kts | 29° |
| 2026-05-01 12:38 | 44.97007 | -69.11954 | 34799 ft | 525 kts | 29° |
| 2026-05-01 12:38 | 45.03515 | -69.07286 | 34802 ft | 525 kts | 30° |
| 2026-05-01 12:39 | 45.10020 | -69.02595 | 34794 ft | 525 kts | 30° |
| 2026-05-01 12:39 | 45.16528 | -68.97904 | 34795 ft | 525 kts | 30° |
| 2026-05-01 12:40 | 45.23040 | -68.93189 | 34790 ft | 525 kts | 30° |
| 2026-05-01 12:40 | 45.29549 | -68.88473 | 34795 ft | 525 kts | 30° |
| 2026-05-01 12:41 | 45.36049 | -68.83746 | 34783 ft | 525 kts | 30° |
| 2026-05-01 12:41 | 45.42559 | -68.79001 | 34788 ft | 525 kts | 30° |
| 2026-05-01 12:42 | 45.49067 | -68.74246 | 34786 ft | 525 kts | 30° |
| 2026-05-01 12:42 | 45.55570 | -68.69483 | 34791 ft | 525 kts | 30° |
| 2026-05-01 12:43 | 45.62037 | -68.64733 | 34789 ft | 526 kts | 30° |
| 2026-05-01 12:43 | 45.68550 | -68.59937 | 34784 ft | 526 kts | 31° |
| 2026-05-01 12:44 | 45.75055 | -68.55132 | 34783 ft | 526 kts | 31° |
| 2026-05-01 12:45 | 45.88079 | -68.45470 | 34781 ft | 526 kts | 31° |
| 2026-05-01 12:45 | 45.94581 | -68.40628 | 34773 ft | 526 kts | 31° |
| 2026-05-01 12:46 | 46.01049 | -68.35801 | 34761 ft | 527 kts | 31° |
| 2026-05-01 12:46 | 46.07551 | -68.30944 | 34758 ft | 527 kts | 31° |
| 2026-05-01 12:47 | 46.14056 | -68.26062 | 34752 ft | 527 kts | 31° |
| 2026-05-01 12:47 | 46.20559 | -68.21170 | 34745 ft | 527 kts | 31° |
| 2026-05-01 12:48 | 46.27057 | -68.16269 | 34740 ft | 527 kts | 31° |
| 2026-05-01 12:48 | 46.33551 | -68.11354 | 34740 ft | 527 kts | 31° |
| 2026-05-01 12:49 | 46.40049 | -68.06426 | 34738 ft | 527 kts | 31° |
| 2026-05-01 12:49 | 46.46555 | -68.01481 | 34744 ft | 527 kts | 31° |
| 2026-05-01 12:50 | 46.53042 | -67.96533 | 34751 ft | 527 kts | 31° |
| 2026-05-01 12:50 | 46.59537 | -67.91568 | 34749 ft | 527 kts | 31° |
| 2026-05-01 12:51 | 46.66028 | -67.86596 | 34745 ft | 527 kts | 31° |